Time;durP1;ratioP1;P1;durP2;ratioP2;P2;SDS_P1;SDS_P2;PMS_P1;PMS_P2;Temp;Humidity;BMP_temperature;BMP_pressure;BME280_temperature;BME280_humidity;BME280_pressure;Samples;Min_cycle;Max_cycle;Signal;HPM_P1;HPM_P2
2022/10/14 00:01:47;;;;;;;0.80;0.77;;;13.50;99.90;;;;;;5013618;28;20468;-70
2022/10/14 00:04:13;;;;;;;1.00;0.60;;;13.50;99.90;;;;;;5013797;28;20171;-70
2022/10/14 00:06:39;;;;;;;0.80;0.80;;;13.50;99.90;;;;;;5012468;28;20235;-71
2022/10/14 00:09:07;;;;;;;1.57;1.47;;;13.40;99.90;;;;;;5014046;28;20444;-70
2022/10/14 00:11:35;;;;;;;0.40;0.40;;;13.50;99.90;;;;;;5014216;28;20795;-69
2022/10/14 00:14:07;;;;;;;0.90;0.90;;;13.50;99.90;;;;;;5014201;28;20497;-70
2022/10/14 00:16:38;;;;;;;1.87;1.00;;;13.60;99.90;;;;;;5013741;28;20437;-70
2022/10/14 00:19:05;;;;;;;0.73;0.73;;;13.50;99.90;;;;;;5015163;28;20474;-70
2022/10/14 00:21:31;;;;;;;1.80;1.67;;;13.50;99.90;;;;;;5018001;28;20409;-69
2022/10/14 00:23:57;;;;;;;2.20;1.60;;;13.50;99.90;;;;;;5018124;28;20445;-70
2022/10/14 00:26:25;;;;;;;2.60;2.40;;;13.50;99.90;;;;;;5017827;28;20426;-70
2022/10/14 00:28:51;;;;;;;1.33;1.33;;;13.60;99.90;;;;;;5017625;28;20660;-69
2022/10/14 00:31:17;;;;;;;1.33;1.23;;;13.50;99.90;;;;;;5017517;28;20411;-70
2022/10/14 00:33:44;;;;;;;10.13;1.63;;;13.50;99.90;;;;;;5017226;28;20468;-70
2022/10/14 00:36:12;;;;;;;3.80;1.00;;;13.30;99.90;;;;;;5017521;28;20590;-70
2022/10/14 00:38:38;;;;;;;1.13;1.10;;;13.50;99.90;;;;;;5017815;28;20434;-69
2022/10/14 00:41:04;;;;;;;3.00;1.13;;;13.60;99.90;;;;;;5017103;28;20880;-69
2022/10/14 00:43:50;;;;;;;0.60;0.60;;;13.60;99.90;;;;;;5017220;28;20196;-70
2022/10/14 00:46:16;;;;;;;1.50;0.93;;;13.50;99.90;;;;;;5017219;28;20438;-70
2022/10/14 00:48:42;;;;;;;4.87;2.20;;;13.70;99.90;;;;;;5017622;28;20487;-71
2022/10/14 00:51:08;;;;;;;0.40;0.40;;;13.70;99.90;;;;;;5017600;28;20621;-70
2022/10/14 00:53:34;;;;;;;0.50;0.43;;;13.60;99.90;;;;;;5017710;28;20467;-69
2022/10/14 00:56:01;;;;;;;1.63;1.53;;;13.60;99.90;;;;;;5017048;28;20824;-70
2022/10/14 00:58:27;;;;;;;0.50;0.50;;;13.50;99.90;;;;;;5017216;28;20413;-69
2022/10/14 01:00:52;;;;;;;1.23;1.23;;;13.50;99.90;;;;;;5017020;28;20406;-71
2022/10/14 01:03:21;;;;;;;0.83;0.70;;;13.50;99.90;;;;;;5017320;28;20218;-69
2022/10/14 01:06:19;;;;;;;1.70;1.17;;;13.40;99.90;;;;;;5017398;28;20183;-70
2022/10/14 01:08:48;;;;;;;1.03;1.03;;;13.40;99.90;;;;;;5013773;28;20531;-70
2022/10/14 01:11:30;;;;;;;1.13;1.13;;;13.40;99.90;;;;;;5017071;28;20413;-70
2022/10/14 01:14:10;;;;;;;0.40;0.40;;;13.40;99.90;;;;;;5017174;28;20923;-69
2022/10/14 01:16:46;;;;;;;1.40;1.30;;;13.30;99.90;;;;;;5017098;28;20891;-70
2022/10/14 01:19:42;;;;;;;2.20;1.27;;;13.20;99.90;;;;;;5015264;28;20950;-71
2022/10/14 01:22:15;;;;;;;1.57;1.27;;;13.10;99.90;;;;;;5017210;28;20497;-70
2022/10/14 01:24:51;;;;;;;7.00;0.90;;;13.10;99.90;;;;;;5016727;28;20895;-70
2022/10/14 01:27:23;;;;;;;2.80;2.33;;;13.20;99.90;;;;;;5016707;28;20441;-69
2022/10/14 01:30:27;;;;;;;0.77;0.60;;;13.20;99.90;;;;;;5015979;28;20417;-70
2022/10/14 01:33:22;;;;;;;3.03;0.73;;;13.20;99.90;;;;;;4975939;28;20479;-70
2022/10/14 01:35:55;;;;;;;0.83;0.83;;;13.10;99.90;;;;;;5016594;28;20817;-70
2022/10/14 01:38:34;;;;;;;0.87;0.77;;;13.10;99.90;;;;;;5016875;28;20433;-69
2022/10/14 01:41:10;;;;;;;0.70;0.70;;;13.10;99.90;;;;;;5016622;28;20406;-70
2022/10/14 01:43:38;;;;;;;0.80;0.80;;;13.10;99.90;;;;;;5016578;28;20504;-70
2022/10/14 01:46:07;;;;;;;1.37;1.30;;;13.00;99.90;;;;;;5016068;28;20436;-69
2022/10/14 01:48:35;;;;;;;0.43;0.43;;;13.20;99.90;;;;;;5016417;28;20474;-70
2022/10/14 01:51:10;;;;;;;0.67;0.67;;;13.10;99.90;;;;;;5016274;28;20583;-69
2022/10/14 01:53:40;;;;;;;0.63;0.63;;;13.20;99.90;;;;;;5016701;28;20400;-70
2022/10/14 01:56:07;;;;;;;0.73;0.73;;;13.20;99.90;;;;;;5016240;28;20886;-70
2022/10/14 01:58:35;;;;;;;3.50;1.67;;;13.40;99.90;;;;;;5016026;28;20790;-71
2022/10/14 02:01:05;;;;;;;0.77;0.70;;;13.40;99.90;;;;;;5015898;28;20406;-69
2022/10/14 02:03:45;;;;;;;0.70;0.70;;;13.40;99.90;;;;;;5016107;28;20486;-70
2022/10/14 02:06:24;;;;;;;1.10;1.10;;;13.40;99.90;;;;;;5016283;28;20748;-68
2022/10/14 02:09:08;;;;;;;2.00;1.53;;;13.40;99.90;;;;;;5015693;28;20407;-69
2022/10/14 02:11:45;;;;;;;0.50;0.50;;;13.40;99.90;;;;;;5015741;28;20436;-70
2022/10/14 02:14:36;;;;;;;2.40;2.30;;;13.40;99.90;;;;;;5015570;28;20527;-70
2022/10/14 02:17:10;;;;;;;1.67;1.50;;;13.40;99.90;;;;;;5013709;28;20435;-70
2022/10/14 02:19:54;;;;;;;0.80;0.80;;;13.40;99.90;;;;;;5015720;28;20464;-70
2022/10/14 02:22:29;;;;;;;1.90;1.80;;;13.40;99.90;;;;;;5015585;28;20402;-70
2022/10/14 02:25:01;;;;;;;1.03;1.03;;;13.40;99.90;;;;;;5015847;28;20468;-70
2022/10/14 02:27:28;;;;;;;0.73;0.73;;;13.30;99.90;;;;;;5015635;28;20435;-70
2022/10/14 02:29:55;;;;;;;2.13;2.03;;;13.30;99.90;;;;;;5015363;28;20484;-69
2022/10/14 02:32:23;;;;;;;1.27;1.10;;;13.30;99.90;;;;;;5015370;28;20414;-70
2022/10/14 02:34:53;;;;;;;0.60;0.60;;;13.40;99.90;;;;;;5015401;28;20524;-69
2022/10/14 02:37:20;;;;;;;1.07;1.07;;;13.60;99.90;;;;;;5015570;28;20458;-70
2022/10/14 02:39:59;;;;;;;1.73;1.63;;;13.60;99.90;;;;;;5015241;28;20437;-70
2022/10/14 02:42:26;;;;;;;1.50;1.27;;;13.60;99.90;;;;;;5014547;28;20796;-71
2022/10/14 02:44:57;;;;;;;1.37;1.37;;;13.50;99.90;;;;;;5014930;28;20411;-69
2022/10/14 02:47:24;;;;;;;0.60;0.50;;;13.40;99.90;;;;;;5014781;28;20456;-69
2022/10/14 02:49:50;;;;;;;1.37;1.27;;;13.40;99.90;;;;;;5015025;28;20430;-69
2022/10/14 02:52:16;;;;;;;1.37;1.27;;;13.50;99.90;;;;;;5015554;28;20429;-70
2022/10/14 02:54:42;;;;;;;3.23;1.17;;;13.50;99.90;;;;;;5014899;28;20454;-70
2022/10/14 02:57:08;;;;;;;1.47;1.37;;;13.50;99.90;;;;;;5015167;28;20923;-70
2022/10/14 02:59:33;;;;;;;1.27;1.17;;;13.50;99.90;;;;;;5014693;28;20655;-70
2022/10/14 03:01:59;;;;;;;1.77;1.67;;;13.60;99.90;;;;;;5015198;28;20582;-70
2022/10/14 03:04:25;;;;;;;2.53;1.83;;;13.60;99.90;;;;;;5015271;28;20180;-70
2022/10/14 03:06:51;;;;;;;6.33;1.03;;;13.50;99.90;;;;;;5015242;28;20484;-69
2022/10/14 03:09:17;;;;;;;2.20;2.10;;;13.50;99.90;;;;;;5014581;28;20172;-70
2022/10/14 03:11:42;;;;;;;1.40;1.30;;;13.40;99.90;;;;;;5014719;28;20493;-70
2022/10/14 03:14:08;;;;;;;1.10;0.93;;;13.40;99.90;;;;;;5014882;28;20262;-70
2022/10/14 03:16:34;;;;;;;1.27;0.80;;;13.50;99.90;;;;;;5014622;28;20190;-70
2022/10/14 03:18:59;;;;;;;1.30;0.90;;;13.40;99.90;;;;;;5014641;28;20216;-70
2022/10/14 03:21:25;;;;;;;1.27;1.17;;;13.40;99.90;;;;;;5014834;28;20225;-70
2022/10/14 03:23:51;;;;;;;1.60;1.50;;;13.40;99.90;;;;;;5014457;28;20200;-70
2022/10/14 03:26:17;;;;;;;1.97;1.53;;;13.20;99.90;;;;;;5014154;28;20621;-70
2022/10/14 03:28:43;;;;;;;0.67;0.67;;;13.40;99.90;;;;;;5014636;28;20441;-69
2022/10/14 03:31:08;;;;;;;1.23;1.20;;;13.40;99.90;;;;;;5014018;28;20402;-70
2022/10/14 03:33:34;;;;;;;0.83;0.83;;;13.40;99.90;;;;;;5014598;28;20633;-70
2022/10/14 03:36:00;;;;;;;0.90;0.90;;;13.40;99.90;;;;;;5014336;28;20210;-71
2022/10/14 03:38:25;;;;;;;1.40;1.17;;;13.40;99.90;;;;;;5013900;28;20194;-70
2022/10/14 03:40:54;;;;;;;1.00;0.87;;;13.40;99.90;;;;;;5014313;28;20410;-70
2022/10/14 03:43:27;;;;;;;0.40;0.40;;;13.40;99.90;;;;;;5015874;28;20174;-70
2022/10/14 03:45:55;;;;;;;1.33;1.00;;;13.40;99.90;;;;;;5013974;28;20814;-73
2022/10/14 03:48:21;;;;;;;1.03;1.03;;;13.40;99.90;;;;;;5013313;28;20434;-70
2022/10/14 03:50:47;;;;;;;1.33;1.07;;;13.40;99.90;;;;;;5013649;28;20422;-71
2022/10/14 03:53:13;;;;;;;2.30;2.13;;;13.40;99.90;;;;;;5013889;28;20398;-70
2022/10/14 03:55:39;;;;;;;0.70;0.70;;;13.40;99.90;;;;;;5013891;28;20450;-71
2022/10/14 03:58:05;;;;;;;0.77;0.77;;;13.30;99.90;;;;;;5014140;28;20222;-71
2022/10/14 04:00:31;;;;;;;0.60;0.60;;;13.40;99.90;;;;;;5013792;28;20404;-70
2022/10/14 04:02:57;;;;;;;1.70;1.30;;;13.40;99.90;;;;;;5014423;28;20398;-70
2022/10/14 04:05:23;;;;;;;0.87;0.87;;;13.40;99.90;;;;;;5013882;28;20502;-69
2022/10/14 04:07:48;;;;;;;0.63;0.63;;;13.40;99.90;;;;;;5013996;28;20206;-69
2022/10/14 04:10:14;;;;;;;2.83;2.10;;;13.40;99.90;;;;;;5013925;28;20596;-69
2022/10/14 04:12:40;;;;;;;0.40;0.40;;;13.40;99.90;;;;;;5014195;28;20202;-70
2022/10/14 04:15:09;;;;;;;1.33;1.27;;;13.40;99.90;;;;;;5014071;28;20195;-71
2022/10/14 04:17:34;;;;;;;1.90;1.73;;;13.40;99.90;;;;;;5013628;28;20558;-70
2022/10/14 04:20:00;;;;;;;2.57;1.33;;;13.40;99.90;;;;;;5013448;28;20414;-70
2022/10/14 04:22:26;;;;;;;1.37;1.17;;;13.40;99.90;;;;;;5012800;28;20178;-71
2022/10/14 04:24:51;;;;;;;1.67;0.90;;;13.40;99.90;;;;;;5012365;28;20245;-71
2022/10/14 04:27:17;;;;;;;0.60;0.60;;;13.40;99.90;;;;;;5013538;28;20191;-71
2022/10/14 04:29:43;;;;;;;1.10;1.03;;;13.50;99.90;;;;;;5012400;28;20177;-75
2022/10/14 04:32:09;;;;;;;0.87;0.87;;;13.50;99.90;;;;;;5012999;28;20178;-73
2022/10/14 04:34:34;;;;;;;3.63;2.00;;;13.50;99.90;;;;;;5013667;28;20951;-73
2022/10/14 04:37:00;;;;;;;0.90;0.90;;;13.50;99.90;;;;;;5013477;28;20195;-71
2022/10/14 04:39:25;;;;;;;2.10;2.00;;;13.50;99.90;;;;;;5013502;28;20218;-73
2022/10/14 04:41:51;;;;;;;0.83;0.83;;;13.50;99.90;;;;;;5013868;28;20167;-72
2022/10/14 04:44:17;;;;;;;1.47;1.37;;;13.50;99.90;;;;;;5013528;28;20172;-70
2022/10/14 04:46:42;;;;;;;1.93;1.83;;;13.60;99.90;;;;;;5011505;28;20226;-72
2022/10/14 04:49:09;;;;;;;1.23;0.60;;;13.60;99.90;;;;;;5013207;28;20167;-71
2022/10/14 04:51:34;;;;;;;0.77;0.77;;;13.60;99.90;;;;;;5013408;28;20174;-71
2022/10/14 04:54:00;;;;;;;1.37;1.13;;;13.50;99.90;;;;;;5013482;28;20493;-71
2022/10/14 04:56:25;;;;;;;1.10;1.10;;;13.50;99.90;;;;;;5011354;28;20278;-72
2022/10/14 04:58:51;;;;;;;1.40;1.40;;;13.50;99.90;;;;;;5013199;28;20246;-72
2022/10/14 05:01:17;;;;;;;1.03;0.70;;;13.50;99.90;;;;;;5013356;28;20199;-71
2022/10/14 05:03:43;;;;;;;0.80;0.80;;;13.60;99.90;;;;;;5013259;28;20204;-72
2022/10/14 05:06:09;;;;;;;1.70;1.60;;;13.60;99.90;;;;;;5016386;28;20414;-71
2022/10/14 05:08:35;;;;;;;0.80;0.80;;;13.50;99.90;;;;;;5017110;28;20413;-67
2022/10/14 05:11:02;;;;;;;1.53;1.43;;;13.60;99.90;;;;;;5016671;28;20175;-68
2022/10/14 05:13:28;;;;;;;1.00;1.00;;;13.90;99.90;;;;;;5017326;28;20465;-68
2022/10/14 05:15:54;;;;;;;0.87;0.87;;;14.40;99.90;;;;;;5017292;28;20476;-67
2022/10/14 05:18:19;;;;;;;1.30;1.13;;;14.80;99.90;;;;;;5016741;28;20435;-68
2022/10/14 05:20:45;;;;;;;1.97;1.27;;;15.20;99.90;;;;;;5015350;28;20176;-70
2022/10/14 05:23:11;;;;;;;2.73;0.90;;;15.40;99.90;;;;;;5017167;28;20182;-70
2022/10/14 05:25:36;;;;;;;0.70;0.70;;;15.30;99.90;;;;;;5016555;28;20174;-69
2022/10/14 05:28:02;;;;;;;0.90;0.90;;;15.10;99.90;;;;;;5014552;28;20241;-69
2022/10/14 05:30:28;;;;;;;2.40;1.20;;;14.80;99.90;;;;;;5016314;28;20544;-69
2022/10/14 05:32:53;;;;;;;0.70;0.70;;;14.60;99.90;;;;;;5016385;28;20906;-69
2022/10/14 05:35:19;;;;;;;1.33;0.90;;;14.40;99.90;;;;;;5016599;28;20199;-69
2022/10/14 05:37:45;;;;;;;1.03;1.03;;;14.20;99.90;;;;;;5016612;28;20192;-69
2022/10/14 05:40:10;;;;;;;1.43;1.40;;;14.00;99.90;;;;;;5016235;28;20168;-69
2022/10/14 05:42:36;;;;;;;0.80;0.80;;;14.00;99.90;;;;;;5016639;28;20179;-69
2022/10/14 05:45:03;;;;;;;1.30;1.20;;;13.90;99.90;;;;;;5016781;28;20413;-69
2022/10/14 05:47:28;;;;;;;0.93;0.93;;;13.90;99.90;;;;;;5014728;28;20207;-69
2022/10/14 05:49:54;;;;;;;0.60;0.50;;;13.80;99.90;;;;;;5014752;28;20417;-69
2022/10/14 05:52:20;;;;;;;1.33;1.23;;;13.80;99.90;;;;;;5014933;28;20178;-70
2022/10/14 05:54:45;;;;;;;0.67;0.67;;;13.80;99.90;;;;;;5014780;28;20723;-70
2022/10/14 05:57:11;;;;;;;0.93;0.90;;;13.70;99.90;;;;;;5015176;28;20211;-70
2022/10/14 05:59:39;;;;;;;0.50;0.50;;;13.70;99.90;;;;;;5014101;28;20169;-69
2022/10/14 06:02:07;;;;;;;1.27;1.17;;;13.70;99.90;;;;;;5015404;28;20270;-68
2022/10/14 06:04:33;;;;;;;1.27;1.17;;;13.70;99.90;;;;;;5014901;28;20423;-69
2022/10/14 06:06:58;;;;;;;0.80;0.80;;;13.70;99.90;;;;;;5015484;28;20418;-70
2022/10/14 06:09:24;;;;;;;0.50;0.50;;;13.70;99.90;;;;;;5013001;28;20164;-70
2022/10/14 06:11:50;;;;;;;1.07;1.07;;;13.70;99.90;;;;;;5014819;28;20186;-71
2022/10/14 06:14:15;;;;;;;1.37;1.37;;;13.70;99.90;;;;;;5015802;28;20183;-70
2022/10/14 06:16:41;;;;;;;1.43;1.13;;;13.70;99.90;;;;;;5011927;28;20205;-70
2022/10/14 06:19:07;;;;;;;0.70;0.57;;;13.70;99.90;;;;;;5014654;28;20577;-69
2022/10/14 06:21:32;;;;;;;1.60;1.50;;;13.70;99.90;;;;;;5015749;28;20175;-69
2022/10/14 06:23:58;;;;;;;2.17;2.07;;;13.70;99.90;;;;;;5015909;28;20201;-70
2022/10/14 06:26:24;;;;;;;0.50;0.50;;;13.70;99.90;;;;;;5014237;28;20196;-71
2022/10/14 06:28:49;;;;;;;1.70;1.60;;;13.70;99.90;;;;;;5015899;28;20625;-71
2022/10/14 06:31:15;;;;;;;2.07;1.90;;;13.70;99.90;;;;;;5014220;28;20650;-71
2022/10/14 06:33:42;;;;;;;0.50;0.50;;;13.70;99.90;;;;;;5014781;28;20278;-70
2022/10/14 06:36:09;;;;;;;1.70;1.60;;;13.70;99.90;;;;;;5015409;28;20454;-71
2022/10/14 06:38:34;;;;;;;0.83;0.83;;;13.70;99.90;;;;;;5015656;28;20417;-71
2022/10/14 06:41:00;;;;;;;0.90;0.90;;;13.70;99.90;;;;;;5015531;28;20413;-71
2022/10/14 06:43:26;;;;;;;0.80;0.67;;;13.80;99.90;;;;;;5015759;28;20195;-71
2022/10/14 06:45:51;;;;;;;4.00;1.83;;;13.80;99.90;;;;;;5014991;28;20525;-71
2022/10/14 06:48:17;;;;;;;0.70;0.70;;;13.90;99.90;;;;;;5013034;28;20204;-71
2022/10/14 06:50:43;;;;;;;0.70;0.70;;;13.80;99.90;;;;;;5015101;28;20621;-71
2022/10/14 06:53:08;;;;;;;1.13;1.03;;;13.90;99.90;;;;;;5015365;28;20179;-71
2022/10/14 06:55:34;;;;;;;1.00;0.80;;;13.80;99.90;;;;;;5015315;28;20203;-72
2022/10/14 06:58:00;;;;;;;0.80;0.80;;;13.90;99.90;;;;;;5014697;28;20200;-72
2022/10/14 07:00:26;;;;;;;2.30;1.13;;;13.90;99.90;;;;;;5014594;28;20403;-71
2022/10/14 07:02:52;;;;;;;1.67;1.40;;;13.90;99.90;;;;;;5014676;28;20413;-71
2022/10/14 07:05:17;;;;;;;0.80;0.80;;;13.90;99.90;;;;;;5013508;28;20414;-71
2022/10/14 07:07:43;;;;;;;1.17;1.17;;;13.90;99.90;;;;;;5015026;28;20645;-71
2022/10/14 07:10:09;;;;;;;2.97;1.40;;;14.00;99.90;;;;;;5014503;28;20605;-71
2022/10/14 07:12:35;;;;;;;1.20;1.20;;;13.90;99.90;;;;;;5015243;28;20206;-71
2022/10/14 07:15:01;;;;;;;23.70;2.70;;;13.90;99.90;;;;;;5013995;28;20307;-71
2022/10/14 07:17:26;;;;;;;1.40;0.97;;;13.90;99.90;;;;;;5013021;28;20199;-71
2022/10/14 07:19:52;;;;;;;1.23;0.70;;;14.00;99.90;;;;;;5014265;28;20411;-71
2022/10/14 07:22:18;;;;;;;1.57;1.47;;;14.00;99.90;;;;;;5014513;28;20254;-71
2022/10/14 07:24:44;;;;;;;0.80;0.80;;;14.00;99.90;;;;;;5014795;28;20489;-71
2022/10/14 07:27:10;;;;;;;1.30;1.30;;;14.00;99.90;;;;;;5014284;28;20232;-71
2022/10/14 07:29:36;;;;;;;2.20;1.30;;;14.00;99.90;;;;;;5014184;28;20175;-71
2022/10/14 07:32:02;;;;;;;1.30;1.03;;;14.10;99.90;;;;;;5014262;28;20181;-71
2022/10/14 07:34:28;;;;;;;4.03;1.60;;;14.10;99.90;;;;;;5013273;28;20464;-72
2022/10/14 07:36:53;;;;;;;1.57;1.47;;;14.10;99.90;;;;;;5012912;28;20434;-72
2022/10/14 07:39:19;;;;;;;2.87;2.67;;;14.10;99.90;;;;;;5013966;28;20775;-71
2022/10/14 07:41:45;;;;;;;1.00;1.00;;;14.20;99.90;;;;;;5014134;28;20172;-71
2022/10/14 07:44:12;;;;;;;1.70;0.80;;;14.20;99.90;;;;;;5012792;28;20186;-71
2022/10/14 07:46:41;;;;;;;2.10;1.03;;;14.20;99.90;;;;;;5013750;28;20210;-71
2022/10/14 07:49:11;;;;;;;1.00;0.90;;;14.20;99.90;;;;;;5014109;28;20494;-71
2022/10/14 07:51:37;;;;;;;1.27;1.03;;;14.20;99.90;;;;;;5013223;28;20953;-71
2022/10/14 07:54:05;;;;;;;2.47;1.70;;;14.20;99.90;;;;;;5014538;28;20415;-70
2022/10/14 07:56:30;;;;;;;0.67;0.67;;;14.20;99.90;;;;;;5014542;28;20504;-71
2022/10/14 07:58:57;;;;;;;0.50;0.50;;;14.30;99.90;;;;;;5013829;28;20881;-71
2022/10/14 08:01:23;;;;;;;0.90;0.90;;;14.30;99.90;;;;;;5014290;28;20576;-71
2022/10/14 08:03:49;;;;;;;1.93;1.83;;;14.20;99.90;;;;;;5014356;28;20446;-71
2022/10/14 08:06:18;;;;;;;3.47;0.50;;;13.80;99.90;;;;;;5014212;28;20185;-70
2022/10/14 08:08:44;;;;;;;1.43;1.33;;;14.20;99.90;;;;;;5014184;28;20179;-75
2022/10/14 08:11:16;;;;;;;1.90;1.37;;;14.20;99.90;;;;;;5012570;28;20850;-72
2022/10/14 08:13:42;;;;;;;2.30;1.23;;;14.20;99.90;;;;;;5014117;28;20403;-74
2022/10/14 08:16:29;;;;;;;1.17;1.07;;;14.30;99.90;;;;;;5013952;28;20870;-72
2022/10/14 08:19:02;;;;;;;2.30;1.47;;;14.30;99.90;;;;;;5013329;28;20418;-74
2022/10/14 08:21:29;;;;;;;1.37;1.27;;;14.30;99.90;;;;;;5010804;28;20444;-73
2022/10/14 08:23:55;;;;;;;1.67;1.33;;;14.40;99.90;;;;;;5013340;28;20490;-72
2022/10/14 08:26:35;;;;;;;1.80;1.70;;;14.40;99.90;;;;;;5013744;28;20647;-73
2022/10/14 08:29:04;;;;;;;1.90;1.77;;;14.40;99.90;;;;;;5011358;28;20410;-73
2022/10/14 08:31:33;;;;;;;1.70;1.60;;;14.50;99.90;;;;;;5012636;28;20917;-72
2022/10/14 08:34:11;;;;;;;1.20;0.80;;;14.50;99.90;;;;;;5014567;28;20415;-74
2022/10/14 08:36:41;;;;;;;1.67;1.53;;;14.50;99.90;;;;;;5013224;28;20477;-72
2022/10/14 08:42:29;;;;;;;1.17;1.07;;;14.50;99.90;;;;;;5011073;28;20425;-73
2022/10/14 08:45:25;;;;;;;2.03;1.70;;;14.50;99.90;;;;;;5016174;28;20817;-73
2022/10/14 08:47:55;;;;;;;1.00;1.00;;;14.60;99.90;;;;;;5013912;28;20478;-75
2022/10/14 08:50:28;;;;;;;5.07;1.53;;;14.70;99.90;;;;;;5017160;28;20765;-73
2022/10/14 08:53:03;;;;;;;2.93;2.37;;;14.80;99.90;;;;;;5017286;28;20495;-70
2022/10/14 08:55:36;;;;;;;2.20;0.90;;;14.80;99.90;;;;;;5017389;28;20445;-71
2022/10/14 08:58:22;;;;;;;1.03;0.93;;;14.80;99.90;;;;;;5017481;28;20447;-70
2022/10/14 09:00:50;;;;;;;1.80;1.70;;;14.90;99.90;;;;;;5017553;28;20401;-73
2022/10/14 09:03:31;;;;;;;1.47;1.47;;;14.90;99.90;;;;;;5017180;28;20933;-73
2022/10/14 09:06:01;;;;;;;1.53;1.43;;;14.90;99.90;;;;;;5016966;28;20438;-73
2022/10/14 09:08:37;;;;;;;1.27;1.20;;;14.90;99.90;;;;;;5016841;28;20492;-73
2022/10/14 09:11:05;;;;;;;3.23;1.10;;;14.80;99.90;;;;;;5016876;28;20889;-72
2022/10/14 09:13:37;;;;;;;1.80;1.70;;;14.80;99.90;;;;;;5017533;28;20871;-71
2022/10/14 09:16:14;;;;;;;1.10;1.00;;;14.90;99.90;;;;;;5015495;28;21013;-73
2022/10/14 09:18:47;;;;;;;0.73;0.73;;;14.70;99.90;;;;;;5017087;28;20477;-71
2022/10/14 09:21:38;;;;;;;0.30;0.30;;;14.70;99.90;;;;;;5016900;28;20810;-72
2022/10/14 09:24:27;;;;;;;1.00;1.00;;;14.70;99.90;;;;;;5014985;28;20420;-73
2022/10/14 09:27:01;;;;;;;2.17;1.00;;;14.70;99.90;;;;;;5016743;28;20461;-71
2022/10/14 09:29:31;;;;;;;0.80;0.80;;;14.60;99.90;;;;;;5016826;28;20511;-73
2022/10/14 09:32:10;;;;;;;1.13;1.13;;;14.60;99.90;;;;;;5017042;28;20445;-71
2022/10/14 09:34:44;;;;;;;0.63;0.63;;;14.70;99.90;;;;;;5016780;28;20538;-73
2022/10/14 09:37:25;;;;;;;1.70;1.10;;;14.80;99.90;;;;;;5016731;28;20430;-72
2022/10/14 09:40:29;;;;;;;1.80;1.17;;;14.80;99.90;;;;;;5016160;28;20404;-71
2022/10/14 09:43:01;;;;;;;0.50;0.50;;;14.80;99.90;;;;;;5016526;28;20402;-71
2022/10/14 09:45:30;;;;;;;0.53;0.53;;;14.90;99.90;;;;;;5016235;28;20743;-71
2022/10/14 09:48:06;;;;;;;0.67;0.63;;;14.90;99.90;;;;;;5014212;28;20430;-72
2022/10/14 09:50:38;;;;;;;0.87;0.50;;;14.80;99.90;;;;;;5016109;28;20755;-71
2022/10/14 09:53:18;;;;;;;2.37;2.27;;;14.80;99.90;;;;;;5016015;28;20422;-72
2022/10/14 09:55:56;;;;;;;0.70;0.70;;;14.80;99.90;;;;;;5016016;28;20458;-73
2022/10/14 09:58:31;;;;;;;2.00;1.23;;;14.80;99.90;;;;;;5015903;28;20486;-71
2022/10/14 10:00:59;;;;;;;0.93;0.93;;;14.90;99.90;;;;;;5015832;28;20498;-71
2022/10/14 10:03:34;;;;;;;0.50;0.50;;;15.00;99.90;;;;;;5015759;28;20406;-71
2022/10/14 10:06:07;;;;;;;0.57;0.57;;;15.00;99.90;;;;;;5015923;28;20415;-72
2022/10/14 10:08:40;;;;;;;1.00;1.00;;;15.00;99.90;;;;;;5012708;28;20467;-70
2022/10/14 10:11:12;;;;;;;3.07;1.40;;;15.00;99.90;;;;;;5016105;28;20399;-73
2022/10/14 10:13:43;;;;;;;0.57;0.57;;;15.00;99.90;;;;;;5016206;28;20412;-72
2022/10/14 10:16:33;;;;;;;3.77;1.73;;;14.80;99.90;;;;;;5015695;28;20448;-71
2022/10/14 10:19:26;;;;;;;0.70;0.70;;;14.70;99.90;;;;;;5015760;28;20382;-71
2022/10/14 10:21:52;;;;;;;1.27;1.17;;;14.70;99.90;;;;;;5016150;28;20407;-73
2022/10/14 10:24:21;;;;;;;1.90;1.43;;;14.50;99.90;;;;;;5015601;28;20401;-71
2022/10/14 10:26:47;;;;;;;0.60;0.60;;;14.30;99.90;;;;;;5015533;28;20430;-72
2022/10/14 10:29:33;;;;;;;1.17;0.87;;;14.30;99.90;;;;;;5015462;28;20448;-72
2022/10/14 10:32:17;;;;;;;0.77;0.77;;;14.40;99.90;;;;;;5015735;28;20413;-73
2022/10/14 10:34:59;;;;;;;1.20;1.10;;;14.40;99.90;;;;;;5014482;28;20486;-71
2022/10/14 10:37:30;;;;;;;0.73;0.73;;;14.40;99.90;;;;;;5013193;28;20995;-73
2022/10/14 10:40:16;;;;;;;0.40;0.40;;;14.30;99.90;;;;;;5014665;28;20541;-73
2022/10/14 10:43:08;;;;;;;0.83;0.83;;;14.30;99.90;;;;;;5015172;28;20418;-71
2022/10/14 10:46:09;;;;;;;0.60;0.40;;;14.20;99.90;;;;;;5014376;28;20500;-72
2022/10/14 10:49:24;;;;;;;0.70;0.60;;;14.20;99.90;;;;;;5008429;28;20422;-73
2022/10/14 10:52:13;;;;;;;0.90;0.40;;;14.20;99.90;;;;;;4983881;28;20908;-72
2022/10/14 10:55:05;;;;;;;0.50;0.50;;;14.20;99.90;;;;;;5014393;28;20512;-72
2022/10/14 10:57:31;;;;;;;0.47;0.47;;;14.20;99.90;;;;;;5011893;28;20772;-72
2022/10/14 11:00:12;;;;;;;0.50;0.50;;;14.20;99.90;;;;;;5013860;28;20460;-73
2022/10/14 11:03:34;;;;;;;0.53;0.53;;;14.30;99.90;;;;;;5013725;28;20163;-72
2022/10/14 11:06:12;;;;;;;0.60;0.60;;;14.40;99.90;;;;;;4956777;28;20524;-74
2022/10/14 11:12:13;;;;;;;0.70;0.70;;;14.60;99.90;;;;;;5009359;28;20405;-72
2022/10/14 11:15:24;;;;;;;0.40;0.40;;;14.60;99.90;;;;;;5012534;28;20458;-73
2022/10/14 11:18:18;;;;;;;0.93;0.93;;;14.60;99.90;;;;;;5014222;28;20426;-71
2022/10/14 11:21:22;;;;;;;0.30;0.30;;;14.70;99.90;;;;;;5013663;28;20807;-72
2022/10/14 11:24:04;;;;;;;0.87;0.70;;;14.70;99.90;;;;;;5014138;28;20489;-73
2022/10/14 11:26:54;;;;;;;0.40;0.40;;;14.80;99.90;;;;;;5014030;28;20484;-71
2022/10/14 11:29:40;;;;;;;1.27;0.60;;;14.90;99.90;;;;;;5012051;28;20414;-74
2022/10/14 11:32:37;;;;;;;0.77;0.73;;;14.90;99.90;;;;;;5013893;28;20852;-72
2022/10/14 11:35:27;;;;;;;5.23;1.83;;;14.90;99.90;;;;;;5014110;28;20813;-73
2022/10/14 11:38:11;;;;;;;0.83;0.83;;;14.90;99.90;;;;;;5013493;28;20430;-73
2022/10/14 11:40:57;;;;;;;0.40;0.40;;;15.00;99.90;;;;;;5013737;28;20404;-74
2022/10/14 11:43:48;;;;;;;0.60;0.60;;;15.00;99.90;;;;;;5014062;28;20393;-71
2022/10/14 11:46:19;;;;;;;0.50;0.50;;;14.90;99.90;;;;;;4965133;28;1404235;-74
2022/10/14 11:49:09;;;;;;;0.50;0.50;;;15.00;99.90;;;;;;5014452;28;20162;-73
2022/10/14 11:51:44;;;;;;;0.70;0.70;;;15.10;99.90;;;;;;5014515;28;20404;-74
2022/10/14 11:54:37;;;;;;;0.60;0.40;;;15.10;99.90;;;;;;5014023;28;20406;-71
2022/10/14 11:57:37;;;;;;;0.43;0.43;;;15.10;99.90;;;;;;5014264;28;20473;-71
2022/10/14 12:00:29;;;;;;;0.50;0.50;;;15.00;99.90;;;;;;5006141;28;20497;-73
2022/10/14 12:03:15;;;;;;;2.10;0.60;;;15.10;99.90;;;;;;5012612;28;20446;-74
2022/10/14 12:05:58;;;;;;;0.40;0.40;;;15.10;99.90;;;;;;5014194;28;20408;-71
2022/10/14 12:08:26;;;;;;;1.33;0.60;;;15.20;99.90;;;;;;5014462;28;20949;-70
2022/10/14 12:11:03;;;;;;;0.80;0.80;;;15.30;99.90;;;;;;5013664;28;20404;-71
2022/10/14 12:13:43;;;;;;;0.60;0.60;;;15.20;99.90;;;;;;5013878;28;20893;-73
2022/10/14 12:16:19;;;;;;;0.60;0.60;;;15.10;99.90;;;;;;5013630;28;20637;-72
2022/10/14 12:18:49;;;;;;;0.40;0.40;;;15.10;99.90;;;;;;5014418;28;20410;-71
2022/10/14 12:21:39;;;;;;;1.60;1.23;;;15.00;99.90;;;;;;5013968;28;20861;-71
2022/10/14 12:24:15;;;;;;;1.17;0.80;;;15.10;99.90;;;;;;5013967;28;20404;-70
2022/10/14 12:27:03;;;;;;;1.00;1.00;;;15.30;99.90;;;;;;5013987;28;20430;-72
2022/10/14 12:29:39;;;;;;;0.73;0.70;;;15.40;99.90;;;;;;5013992;28;20404;-72
2022/10/14 12:32:16;;;;;;;1.10;0.90;;;15.40;99.90;;;;;;5013740;28;20403;-72
2022/10/14 12:34:43;;;;;;;0.87;0.73;;;15.40;99.90;;;;;;5013874;28;20452;-72
2022/10/14 12:37:30;;;;;;;2.53;0.80;;;15.40;99.90;;;;;;5014047;28;20778;-72
2022/10/14 12:40:23;;;;;;;2.00;0.67;;;15.40;99.90;;;;;;5013383;28;20806;-72
2022/10/14 12:43:03;;;;;;;1.53;0.93;;;15.30;99.90;;;;;;5013327;28;20798;-70
2022/10/14 12:45:32;;;;;;;0.30;0.30;;;15.30;99.90;;;;;;5013504;28;20405;-73
2022/10/14 12:48:14;;;;;;;1.30;1.03;;;15.30;99.90;;;;;;5011198;28;20424;-73
2022/10/14 12:50:45;;;;;;;0.67;0.67;;;15.30;99.90;;;;;;5012324;28;20509;-70
2022/10/14 12:53:27;;;;;;;1.70;1.50;;;15.20;99.90;;;;;;5013607;28;20785;-70
2022/10/14 12:55:56;;;;;;;3.73;1.00;;;15.10;99.90;;;;;;5013379;28;20864;-71
2022/10/14 12:58:30;;;;;;;3.07;1.57;;;15.10;99.90;;;;;;5011251;28;20419;-73
2022/10/14 13:01:00;;;;;;;1.57;1.27;;;15.10;99.90;;;;;;5013127;28;20428;-73
2022/10/14 13:03:31;;;;;;;1.70;1.60;;;15.20;99.90;;;;;;5013371;28;20745;-71
2022/10/14 13:06:26;;;;;;;0.90;0.90;;;15.30;99.90;;;;;;5013569;28;20406;-71
2022/10/14 13:09:10;;;;;;;1.63;1.00;;;15.30;99.90;;;;;;5012950;28;20850;-71
2022/10/14 13:11:40;;;;;;;1.27;1.27;;;15.40;99.90;;;;;;5013171;28;20398;-72
2022/10/14 13:14:24;;;;;;;0.83;0.83;;;15.40;99.90;;;;;;5013397;28;20403;-72
2022/10/14 13:16:50;;;;;;;0.80;0.80;;;15.30;99.90;;;;;;5013190;28;20529;-70
2022/10/14 13:19:35;;;;;;;0.73;0.73;;;15.40;99.90;;;;;;5012804;28;20477;-71